createdAt,value
2023-04-19T00:02:30.565Z,25.91
2023-04-19T00:05:01.971Z,26.46
2023-04-19T00:07:33.934Z,26.61
2023-04-19T00:10:05.255Z,25.45
2023-04-19T00:12:36.149Z,25.51
2023-04-19T00:15:08.355Z,25.72
2023-04-19T00:17:39.496Z,25.74
2023-04-19T00:20:12.070Z,24.99
2023-04-19T00:22:43.724Z,25.67
2023-04-19T00:25:15.178Z,25.72
2023-04-19T00:27:46.998Z,26.28
2023-04-19T00:30:18.598Z,27.15
2023-04-19T00:32:49.900Z,25.81
2023-04-19T00:35:21.733Z,25.27
2023-04-19T00:37:53.218Z,24.93
2023-04-19T00:40:24.876Z,24.81
2023-04-19T00:42:56.141Z,24.50
2023-04-19T00:45:28.321Z,24.83
2023-04-19T00:47:59.590Z,24.24
2023-04-19T00:50:31.933Z,24.36
2023-04-19T00:53:03.693Z,23.90
2023-04-19T00:55:34.790Z,24.38
2023-04-19T00:58:09.997Z,24.42
2023-04-19T01:00:41.436Z,24.45
2023-04-19T01:03:15.087Z,24.56
2023-04-19T01:05:46.802Z,24.67
2023-04-19T01:08:17.991Z,24.35
2023-04-19T01:10:49.206Z,24.39
2023-04-19T01:13:20.758Z,24.30
2023-04-19T01:15:53.111Z,23.88
2023-04-19T01:18:27.014Z,23.67
2023-04-19T01:20:58.329Z,23.74
2023-04-19T01:23:29.349Z,24.06
2023-04-19T01:26:00.365Z,24.23
2023-04-19T01:28:31.190Z,24.42
2023-04-19T01:31:02.432Z,24.49
2023-04-19T01:33:33.141Z,24.59
2023-04-19T01:36:04.609Z,24.93
2023-04-19T01:38:37.688Z,24.57
2023-04-19T01:41:09.573Z,24.72
2023-04-19T01:43:41.049Z,24.64
2023-04-19T01:46:12.794Z,24.43
2023-04-19T01:48:44.173Z,24.40
2023-04-19T01:51:15.646Z,24.23
2023-04-19T01:53:47.037Z,24.06
2023-04-19T01:56:19.707Z,24.32
2023-04-19T01:58:51.033Z,24.16
2023-04-19T02:01:22.832Z,24.13
2023-04-19T02:03:55.882Z,24.24
2023-04-19T02:06:28.773Z,24.40
2023-04-19T02:09:00.445Z,24.27
2023-04-19T02:11:31.286Z,24.17
2023-04-19T02:14:02.428Z,24.24
2023-04-19T02:16:35.762Z,24.02
2023-04-19T02:19:08.384Z,23.75
2023-04-19T02:21:39.956Z,23.87
2023-04-19T02:24:11.234Z,24.38
2023-04-19T02:26:42.886Z,24.27
2023-04-19T02:29:18.277Z,24.35
2023-04-19T02:31:49.974Z,23.67
2023-04-19T02:34:20.559Z,23.15
2023-04-19T02:36:52.163Z,23.19
2023-04-19T02:39:23.419Z,22.89
2023-04-19T02:41:54.574Z,23.12
2023-04-19T02:44:26.401Z,23.61
2023-04-19T02:46:59.116Z,24.19
2023-04-19T02:49:30.169Z,24.61
2023-04-19T02:52:01.960Z,24.21
2023-04-19T02:54:35.512Z,24.29
2023-04-19T02:57:07.144Z,24.74
2023-04-19T02:59:39.091Z,25.61
2023-04-19T03:02:10.008Z,26.41
2023-04-19T03:04:42.331Z,25.89
2023-04-19T03:07:14.095Z,26.01
2023-04-19T03:09:45.499Z,25.42
2023-04-19T03:12:17.114Z,25.96
2023-04-19T03:14:48.440Z,25.87
2023-04-19T03:17:20.248Z,25.97
2023-04-19T03:19:51.845Z,24.78
2023-04-19T03:22:23.849Z,24.56
2023-04-19T03:24:54.870Z,24.87
2023-04-19T03:27:26.983Z,24.17
2023-04-19T03:30:02.920Z,24.28
2023-04-19T03:32:37.438Z,24.65
2023-04-19T03:35:11.105Z,24.74
2023-04-19T03:37:42.694Z,24.64
2023-04-19T03:40:13.563Z,23.91
2023-04-19T03:42:45.398Z,24.05
2023-04-19T03:45:24.191Z,24.85
2023-04-19T03:47:56.539Z,24.27
2023-04-19T03:50:28.846Z,23.99
2023-04-19T03:53:00.933Z,24.27
2023-04-19T03:55:31.804Z,24.09
2023-04-19T03:58:03.440Z,24.08
2023-04-19T04:00:48.892Z,23.84
2023-04-19T04:03:20.790Z,23.84
2023-04-19T04:05:51.635Z,23.84
2023-04-19T04:08:22.613Z,24.00
2023-04-19T04:10:54.565Z,23.31
2023-04-19T04:13:25.910Z,23.27
2023-04-19T04:16:09.231Z,23.34
2023-04-19T04:18:40.962Z,23.38
2023-04-19T04:21:14.994Z,23.67
2023-04-19T04:23:51.325Z,23.39
2023-04-19T04:26:35.393Z,23.26
2023-04-19T04:29:22.365Z,23.25
2023-04-19T04:31:58.313Z,23.19
2023-04-19T04:34:35.044Z,23.07
2023-04-19T04:37:11.413Z,23.43
2023-04-19T04:39:44.559Z,23.29
2023-04-19T04:42:16.242Z,23.60
2023-04-19T04:44:49.588Z,23.44
2023-04-19T04:47:21.170Z,23.04
2023-04-19T04:49:58.156Z,22.93
2023-04-19T04:52:29.299Z,22.85
2023-04-19T04:55:12.481Z,22.61
2023-04-19T04:57:47.275Z,22.63
2023-04-19T05:00:25.984Z,22.73
2023-04-19T05:03:08.205Z,22.39
2023-04-19T05:05:45.469Z,22.50
2023-04-19T05:08:17.130Z,22.45
2023-04-19T05:10:49.008Z,22.37
2023-04-19T05:13:21.215Z,22.46
2023-04-19T05:15:54.015Z,22.48
2023-04-19T05:18:25.767Z,22.51
2023-04-19T05:20:58.103Z,22.27
2023-04-19T05:23:33.880Z,22.31
2023-04-19T05:26:05.308Z,22.36
2023-04-19T05:28:36.847Z,22.30
2023-04-19T05:31:16.233Z,22.23
2023-04-19T05:33:56.018Z,22.22
2023-04-19T05:36:28.337Z,22.11
2023-04-19T05:38:59.596Z,22.04
2023-04-19T05:41:30.736Z,22.00
2023-04-19T05:44:01.893Z,21.98
2023-04-19T05:46:33.340Z,21.79
2023-04-19T05:49:05.243Z,21.81
2023-04-19T05:52:09.218Z,21.79
2023-04-19T05:54:49.056Z,21.69
2023-04-19T05:57:20.549Z,21.60
2023-04-19T05:59:52.046Z,21.55
2023-04-19T06:02:28.485Z,21.57
2023-04-19T06:05:02.439Z,21.47
2023-04-19T06:07:40.546Z,21.36
2023-04-19T06:10:15.421Z,21.34
2023-04-19T06:12:46.563Z,21.32
2023-04-19T06:15:17.701Z,21.24
2023-04-19T06:17:49.894Z,21.18
2023-04-19T06:20:21.279Z,21.17
2023-04-19T06:22:53.455Z,21.01
2023-04-19T06:25:24.967Z,21.10
2023-04-19T06:27:55.862Z,21.21
2023-04-19T06:30:27.456Z,21.11
2023-04-19T06:32:58.394Z,21.14
2023-04-19T06:35:29.646Z,21.04
2023-04-19T06:38:03.683Z,21.08
2023-04-19T06:40:35.991Z,21.10
2023-04-19T06:43:07.241Z,20.89
2023-04-19T06:45:38.080Z,20.94
2023-04-19T06:48:11.349Z,20.96
2023-04-19T06:50:42.817Z,20.85
2023-04-19T06:53:15.058Z,20.86
2023-04-19T06:55:47.698Z,20.87
2023-04-19T06:58:18.861Z,20.89
2023-04-19T07:00:50.052Z,20.79
2023-04-19T07:03:21.612Z,20.78
2023-04-19T07:05:54.168Z,20.77
2023-04-19T07:08:48.240Z,20.80
2023-04-19T07:11:21.254Z,20.62
2023-04-19T07:13:53.826Z,20.69
2023-04-19T07:16:26.847Z,20.64
2023-04-19T07:18:59.393Z,20.69
2023-04-19T07:21:34.747Z,20.54
2023-04-19T07:24:06.488Z,20.46
2023-04-19T07:26:37.180Z,20.38
2023-04-19T07:29:09.036Z,20.37
2023-04-19T07:31:39.612Z,20.37
2023-04-19T07:34:10.701Z,20.30
2023-04-19T07:36:42.060Z,20.22
2023-04-19T07:39:15.401Z,20.12
2023-04-19T07:41:47.970Z,20.16
2023-04-19T07:44:19.719Z,20.05
2023-04-19T07:46:50.734Z,20.06
2023-04-19T07:49:22.402Z,19.98
2023-04-19T07:51:53.946Z,19.93
2023-04-19T07:54:25.704Z,20.02
2023-04-19T07:56:58.982Z,20.00
2023-04-19T07:59:30.817Z,19.98
2023-04-19T08:02:02.378Z,19.98
2023-04-19T08:04:34.165Z,20.00
2023-04-19T08:07:06.356Z,19.91
2023-04-19T08:09:36.904Z,19.89
2023-04-19T08:12:09.351Z,20.05
2023-04-19T08:14:55.559Z,20.15
2023-04-19T08:17:38.145Z,19.97
2023-04-19T08:20:13.802Z,19.93
2023-04-19T08:22:45.292Z,20.04
2023-04-19T08:25:17.106Z,20.09
2023-04-19T08:27:49.719Z,20.14
2023-04-19T08:30:20.997Z,20.09
2023-04-19T08:32:56.977Z,20.08
2023-04-19T08:35:29.031Z,20.04
2023-04-19T08:37:59.776Z,20.01
2023-04-19T08:40:33.431Z,20.00
2023-04-19T08:43:08.978Z,19.96
2023-04-19T08:45:40.983Z,19.95
2023-04-19T08:48:13.436Z,20.00
2023-04-19T08:51:00.710Z,20.02
2023-04-19T08:53:37.292Z,19.97
2023-04-19T08:56:15.120Z,19.94
2023-04-19T08:59:07.613Z,20.06
2023-04-19T09:01:44.905Z,20.01
2023-04-19T09:04:35.682Z,19.96
2023-04-19T09:07:07.518Z,20.01
2023-04-19T09:09:48.724Z,20.04
2023-04-19T09:12:28.554Z,19.99
2023-04-19T09:15:01.773Z,20.05
2023-04-19T09:17:39.643Z,20.04
2023-04-19T09:20:11.229Z,20.01
2023-04-19T09:22:42.600Z,19.89
2023-04-19T09:28:15.150Z,19.95
2023-04-19T09:30:55.113Z,19.79
2023-04-19T09:33:41.511Z,19.81
2023-04-19T09:36:14.578Z,19.84
2023-04-19T09:38:55.134Z,19.72
2023-04-19T09:41:26.814Z,19.67
2023-04-19T09:46:57.086Z,19.62
2023-04-19T09:49:41.614Z,19.56
2023-04-19T09:52:17.276Z,19.51
2023-04-19T09:54:48.191Z,19.49
2023-04-19T09:57:20.635Z,19.45
2023-04-19T09:59:52.063Z,19.50
2023-04-19T10:02:25.266Z,19.48
2023-04-19T10:05:16.461Z,19.44
2023-04-19T10:07:50.212Z,19.32
2023-04-19T10:10:30.207Z,19.38
2023-04-19T10:15:54.113Z,19.35
2023-04-19T10:18:29.076Z,19.34
2023-04-19T10:21:04.066Z,19.38
2023-04-19T10:23:36.288Z,19.38
2023-04-19T10:26:08.747Z,19.37
2023-04-19T10:28:40.398Z,19.35
2023-04-19T10:31:13.613Z,19.19
2023-04-19T10:33:44.943Z,19.20
2023-04-19T10:36:19.273Z,19.14
2023-04-19T10:38:55.208Z,19.15
2023-04-19T10:41:26.968Z,19.14
2023-04-19T10:43:57.653Z,19.07
2023-04-19T10:46:30.543Z,19.04
2023-04-19T10:49:06.815Z,18.99
2023-04-19T10:51:45.859Z,19.04
2023-04-19T10:54:37.256Z,19.03
2023-04-19T10:57:12.866Z,18.98
2023-04-19T10:59:45.866Z,18.99
2023-04-19T11:02:27.466Z,18.96
2023-04-19T11:04:58.593Z,18.93
2023-04-19T11:07:40.099Z,18.91
2023-04-19T11:10:13.038Z,18.88
2023-04-19T11:12:45.530Z,18.88
2023-04-19T11:15:18.115Z,18.82
2023-04-19T11:18:08.986Z,18.66
2023-04-19T11:20:45.791Z,18.55
2023-04-19T11:23:21.117Z,18.60
2023-04-19T11:25:54.682Z,18.56
2023-04-19T11:28:26.137Z,18.61
2023-04-19T11:30:57.693Z,18.62
2023-04-19T11:33:30.130Z,18.54
2023-04-19T11:36:01.447Z,18.57
2023-04-19T11:38:32.797Z,18.45
2023-04-19T11:41:06.935Z,18.49
2023-04-19T11:43:38.939Z,18.42
2023-04-19T11:46:12.306Z,18.27
2023-04-19T11:49:03.706Z,18.27
2023-04-19T11:51:34.994Z,18.17
2023-04-19T11:54:18.268Z,18.00
2023-04-19T11:57:09.071Z,18.01
2023-04-19T11:59:42.067Z,17.92
2023-04-19T12:02:14.893Z,17.80
2023-04-19T12:04:46.182Z,17.71
2023-04-19T12:07:17.855Z,17.73
2023-04-19T12:09:51.516Z,17.83
2023-04-19T12:12:35.382Z,17.77
2023-04-19T12:15:08.447Z,17.69
2023-04-19T12:18:02.406Z,17.61
2023-04-19T12:20:38.849Z,17.60
2023-04-19T12:23:12.771Z,17.62
2023-04-19T12:25:45.445Z,17.58
2023-04-19T12:28:18.031Z,17.60
2023-04-19T12:30:49.441Z,17.52
2023-04-19T12:33:22.210Z,17.48
2023-04-19T12:35:55.079Z,17.54
2023-04-19T12:38:25.953Z,17.48
2023-04-19T12:40:57.098Z,17.39
2023-04-19T12:43:28.597Z,17.46
2023-04-19T12:46:03.770Z,17.44
2023-04-19T12:48:35.496Z,17.46
2023-04-19T12:51:07.134Z,17.35
2023-04-19T12:53:38.256Z,17.33
2023-04-19T12:56:09.586Z,17.29
2023-04-19T12:58:40.658Z,17.35
2023-04-19T13:01:12.817Z,17.44
2023-04-19T13:03:45.292Z,17.44
2023-04-19T13:06:18.294Z,17.47
2023-04-19T13:08:50.963Z,17.42
2023-04-19T13:11:24.503Z,17.42
2023-04-19T13:13:55.832Z,17.41
2023-04-19T13:16:27.083Z,17.33
2023-04-19T13:18:58.451Z,17.33
2023-04-19T13:21:30.131Z,17.29
2023-04-19T13:24:02.068Z,17.23
2023-04-19T13:26:35.563Z,17.27
2023-04-19T13:29:07.149Z,17.36
2023-04-19T13:31:38.416Z,17.29
2023-04-19T13:34:09.498Z,17.23
2023-04-19T13:36:42.416Z,17.13
2023-04-19T13:39:13.926Z,17.12
2023-04-19T13:41:45.418Z,17.16
2023-04-19T13:44:17.085Z,17.41
2023-04-19T13:46:48.910Z,17.17
2023-04-19T13:49:20.952Z,17.15
2023-04-19T13:51:52.361Z,17.37
2023-04-19T13:54:23.393Z,17.41
2023-04-19T13:56:55.892Z,17.56
2023-04-19T13:59:27.728Z,17.60
2023-04-19T14:01:58.824Z,17.61
2023-04-19T14:04:32.732Z,17.55
2023-04-19T14:07:04.269Z,17.60
2023-04-19T14:09:35.523Z,17.67
2023-04-19T14:12:07.298Z,17.75
2023-04-19T14:14:39.046Z,17.74
2023-04-19T14:17:10.287Z,17.76
2023-04-19T14:19:41.772Z,17.74
2023-04-19T14:22:12.959Z,17.78
2023-04-19T14:24:44.196Z,17.76
2023-04-19T14:27:15.347Z,17.68
2023-04-19T14:29:46.341Z,17.57
2023-04-19T14:32:26.013Z,17.60
2023-04-19T14:34:58.221Z,17.55
2023-04-19T14:37:29.712Z,17.57
2023-04-19T14:40:00.809Z,17.57
2023-04-19T14:42:33.752Z,17.57
2023-04-19T14:45:04.999Z,17.53
2023-04-19T14:47:36.932Z,17.40
2023-04-19T14:50:08.865Z,17.33
2023-04-19T14:52:40.570Z,17.45
2023-04-19T14:55:12.812Z,17.37
2023-04-19T14:57:44.450Z,17.47
2023-04-19T15:00:15.556Z,17.52
2023-04-19T15:02:47.059Z,17.53
2023-04-19T15:05:19.801Z,17.42
2023-04-19T15:07:51.777Z,17.38
2023-04-19T15:10:23.350Z,17.44
2023-04-19T15:12:54.421Z,17.30
2023-04-19T15:15:25.893Z,17.15
2023-04-19T15:17:58.298Z,16.86
2023-04-19T15:20:29.800Z,16.80
2023-04-19T15:23:01.661Z,16.88
2023-04-19T15:25:32.959Z,16.93
2023-04-19T15:28:05.597Z,16.88
2023-04-19T15:30:37.811Z,16.83
2023-04-19T15:33:09.238Z,16.64
2023-04-19T15:35:40.618Z,16.91
2023-04-19T15:38:11.514Z,16.88
2023-04-19T15:40:42.750Z,16.82
2023-04-19T15:43:14.341Z,16.75
2023-04-19T15:45:45.191Z,16.83
2023-04-19T15:48:16.804Z,16.89
2023-04-19T15:50:47.700Z,16.75
2023-04-19T15:53:19.270Z,16.64
2023-04-19T15:55:50.588Z,16.64
2023-04-19T15:58:21.829Z,16.54
2023-04-19T16:00:53.516Z,16.41
2023-04-19T16:03:24.660Z,16.38
2023-04-19T16:05:57.211Z,16.42
2023-04-19T16:08:28.657Z,16.52
2023-04-19T16:10:59.435Z,16.58
2023-04-19T16:13:31.460Z,16.68
2023-04-19T16:16:03.374Z,16.59
2023-04-19T16:18:35.009Z,16.56
2023-04-19T16:21:06.811Z,16.62
2023-04-19T16:23:38.218Z,16.71
2023-04-19T16:26:09.484Z,16.78
2023-04-19T16:28:40.611Z,16.75
2023-04-19T16:31:12.136Z,16.77
2023-04-19T16:33:43.104Z,16.70
2023-04-19T16:36:14.324Z,16.84
2023-04-19T16:38:45.851Z,16.82
2023-04-19T16:41:17.172Z,16.66
2023-04-19T16:43:48.267Z,16.69
2023-04-19T16:46:19.541Z,16.71
2023-04-19T16:48:50.859Z,16.85
2023-04-19T16:51:22.806Z,16.88
2023-04-19T16:53:54.727Z,16.89
2023-04-19T16:56:26.289Z,16.78
2023-04-19T16:58:58.013Z,16.92
2023-04-19T17:01:28.976Z,17.01
2023-04-19T17:04:00.276Z,17.02
2023-04-19T17:06:34.924Z,17.06
2023-04-19T17:09:09.282Z,17.04
2023-04-19T17:11:41.212Z,17.01
2023-04-19T17:14:12.767Z,17.06
2023-04-19T17:16:43.923Z,17.12
2023-04-19T17:19:16.018Z,16.98
2023-04-19T17:21:48.087Z,17.05
2023-04-19T17:24:19.661Z,17.04
2023-04-19T17:26:51.505Z,17.16
2023-04-19T17:29:22.849Z,17.11
2023-04-19T17:31:53.974Z,17.23
2023-04-19T17:34:25.121Z,17.27
2023-04-19T17:36:56.463Z,17.23
2023-04-19T17:39:29.431Z,17.28
2023-04-19T17:42:00.993Z,17.34
2023-04-19T17:44:32.509Z,17.28
2023-04-19T17:47:03.895Z,17.33
2023-04-19T17:49:35.278Z,17.36
2023-04-19T17:52:06.758Z,17.31
2023-04-19T17:54:38.074Z,17.32
2023-04-19T17:57:09.379Z,17.36
2023-04-19T17:59:40.529Z,17.35
2023-04-19T18:02:12.045Z,17.42
2023-04-19T18:04:46.154Z,17.43
2023-04-19T18:07:17.945Z,17.47
2023-04-19T18:09:49.114Z,17.40
2023-04-19T18:12:20.261Z,17.34
2023-04-19T18:14:51.467Z,17.35
2023-04-19T18:17:23.036Z,17.26
2023-04-19T18:19:53.553Z,17.34
2023-04-19T18:22:24.619Z,17.41
2023-04-19T18:24:56.571Z,17.42
2023-04-19T18:27:29.277Z,17.36
2023-04-19T18:30:05.339Z,17.33
2023-04-19T18:32:37.102Z,17.28
2023-04-19T18:35:12.972Z,17.29
2023-04-19T18:37:44.835Z,17.32
2023-04-19T18:40:16.401Z,17.28
2023-04-19T18:42:47.105Z,17.21
2023-04-19T18:45:19.086Z,17.26
2023-04-19T18:47:50.599Z,17.34
2023-04-19T18:50:21.482Z,17.38
2023-04-19T18:52:53.074Z,17.29
2023-04-19T18:55:24.485Z,17.37
2023-04-19T18:57:55.270Z,17.23
2023-04-19T19:00:26.821Z,17.19
2023-04-19T19:03:00.455Z,17.12
2023-04-19T19:05:33.557Z,17.24
2023-04-19T19:08:05.841Z,17.41
2023-04-19T19:11:07.058Z,17.43
2023-04-19T19:13:28.582Z,17.42
2023-04-19T19:16:00.131Z,17.51
2023-04-19T19:18:32.018Z,17.52
2023-04-19T19:21:03.854Z,17.57
2023-04-19T19:23:38.274Z,17.50
2023-04-19T19:26:16.668Z,17.64
2023-04-19T19:28:47.794Z,17.62
2023-04-19T19:31:18.634Z,17.65
2023-04-19T19:34:08.740Z,17.65
2023-04-19T19:36:41.773Z,17.67
2023-04-19T19:39:13.013Z,17.78
2023-04-19T19:44:18.458Z,17.86
2023-04-19T19:46:49.980Z,17.93
2023-04-19T19:49:21.317Z,17.79
2023-04-19T19:51:58.641Z,17.79
2023-04-19T19:54:30.958Z,17.95
2023-04-19T19:59:36.779Z,18.13
2023-04-19T20:02:09.022Z,18.28
2023-04-19T20:04:40.865Z,18.32
2023-04-19T20:09:51.875Z,18.44
2023-04-19T20:12:22.933Z,18.56
2023-04-19T20:14:58.124Z,18.71
2023-04-19T20:17:29.502Z,18.91
2023-04-19T20:20:07.344Z,19.11
2023-04-19T20:22:39.491Z,19.09
2023-04-19T20:25:12.348Z,19.23
2023-04-19T20:27:44.072Z,19.44
2023-04-19T20:30:15.991Z,19.50
2023-04-19T20:32:48.167Z,19.60
2023-04-19T20:35:19.689Z,19.78
2023-04-19T20:37:52.445Z,19.84
2023-04-19T20:40:24.480Z,20.06
2023-04-19T20:42:56.004Z,20.19
2023-04-19T20:45:27.770Z,20.34
2023-04-19T20:47:59.877Z,20.42
2023-04-19T20:50:30.552Z,20.51
2023-04-19T20:53:02.299Z,20.66
2023-04-19T20:55:33.030Z,21.07
2023-04-19T20:58:04.930Z,21.16
2023-04-19T21:00:36.525Z,21.21
2023-04-19T21:03:08.206Z,21.78
2023-04-19T21:05:40.960Z,22.01
2023-04-19T21:08:12.575Z,21.83
2023-04-19T21:10:44.801Z,22.11
2023-04-19T21:13:16.338Z,22.46
2023-04-19T21:15:47.447Z,22.10
2023-04-19T21:18:19.289Z,22.29
2023-04-19T21:20:50.845Z,22.26
2023-04-19T21:23:22.455Z,22.26
2023-04-19T21:25:53.292Z,22.00
2023-04-19T21:28:24.327Z,22.20
2023-04-19T21:30:56.866Z,22.36
2023-04-19T21:33:28.114Z,22.75
2023-04-19T21:35:59.316Z,22.67
2023-04-19T21:38:30.851Z,22.62
2023-04-19T21:41:02.463Z,22.88
2023-04-19T21:43:33.958Z,23.46
2023-04-19T21:46:06.499Z,23.23
2023-04-19T21:48:37.694Z,23.21
2023-04-19T21:51:08.672Z,23.59
2023-04-19T21:53:40.114Z,23.53
2023-04-19T21:56:11.307Z,23.12
2023-04-19T21:58:42.498Z,23.51
2023-04-19T22:01:13.525Z,24.53
2023-04-19T22:03:45.140Z,23.77
2023-04-19T22:06:18.565Z,24.06
2023-04-19T22:08:50.045Z,24.17
2023-04-19T22:11:22.536Z,24.18
2023-04-19T22:13:54.579Z,24.41
2023-04-19T22:16:29.801Z,23.82
2023-04-19T22:19:03.025Z,23.52
2023-04-19T22:21:34.815Z,24.07
2023-04-19T22:24:07.096Z,24.24
2023-04-19T22:26:38.777Z,23.81
2023-04-19T22:29:10.569Z,23.74
2023-04-19T22:31:41.040Z,24.16
2023-04-19T22:34:12.142Z,24.96
2023-04-19T22:36:44.440Z,24.28
2023-04-19T22:39:19.861Z,23.75
2023-04-19T22:41:51.300Z,24.01
2023-04-19T22:44:22.691Z,24.08
2023-04-19T22:46:54.490Z,23.28
2023-04-19T22:49:26.720Z,23.56
2023-04-19T22:51:59.917Z,23.66
2023-04-19T22:54:31.730Z,23.10
2023-04-19T22:57:04.788Z,23.46
2023-04-19T22:59:36.245Z,23.03
2023-04-19T23:02:07.729Z,23.61
2023-04-19T23:04:39.332Z,23.43
2023-04-19T23:07:10.729Z,23.29
2023-04-19T23:09:42.374Z,23.19
2023-04-19T23:12:17.137Z,23.45
2023-04-19T23:14:49.972Z,23.49
2023-04-19T23:17:21.391Z,23.69
2023-04-19T23:19:52.812Z,24.41
2023-04-19T23:22:24.322Z,24.33
2023-04-19T23:24:55.545Z,23.87
2023-04-19T23:27:27.247Z,24.29
2023-04-19T23:29:58.523Z,24.40
2023-04-19T23:32:29.902Z,23.76
2023-04-19T23:35:01.796Z,23.51
2023-04-19T23:37:34.279Z,23.67
2023-04-19T23:40:07.676Z,23.82
2023-04-19T23:42:41.561Z,23.65
2023-04-19T23:45:13.077Z,23.49
2023-04-19T23:47:43.553Z,23.50
2023-04-19T23:50:14.673Z,24.49
2023-04-19T23:52:45.786Z,25.31
2023-04-19T23:55:17.933Z,24.44
2023-04-19T23:57:49.905Z,24.47
